createdAt,value
2018-04-25T00:01:06.068Z,4.97
2018-04-25T00:03:34.298Z,5.70
2018-04-25T00:06:02.594Z,6.60
2018-04-25T00:08:30.845Z,6.20
2018-04-25T00:10:59.128Z,5.43
2018-04-25T00:13:27.391Z,5.47
2018-04-25T00:15:55.756Z,6.80
2018-04-25T00:18:23.938Z,6.33
2018-04-25T00:20:52.210Z,5.07
2018-04-25T00:23:20.513Z,5.53
2018-04-25T00:25:48.805Z,6.20
2018-04-25T00:28:17.059Z,7.80
2018-04-25T00:30:45.335Z,11.60
2018-04-25T00:33:13.598Z,8.13
2018-04-25T00:35:41.891Z,5.60
2018-04-25T00:38:10.136Z,5.20
2018-04-25T00:40:38.415Z,4.97
2018-04-25T00:43:06.684Z,5.37
2018-04-25T00:45:35.032Z,5.63
2018-04-25T00:48:03.295Z,5.93
2018-04-25T00:50:31.567Z,7.83
2018-04-25T00:53:00.759Z,6.17
2018-04-25T00:55:29.038Z,8.13
2018-04-25T00:57:57.311Z,7.77
2018-04-25T01:00:25.610Z,5.70
2018-04-25T01:02:53.879Z,5.80
2018-04-25T01:05:22.161Z,5.20
2018-04-25T01:07:50.442Z,5.43
2018-04-25T01:10:18.780Z,5.07
2018-04-25T01:12:47.040Z,5.30
2018-04-25T01:15:15.306Z,8.10
2018-04-25T01:17:43.588Z,6.60
2018-04-25T01:20:11.871Z,11.03
2018-04-25T01:22:40.164Z,6.13
2018-04-25T01:25:15.130Z,5.30
2018-04-25T01:27:56.530Z,5.00
2018-04-25T01:30:24.798Z,5.93
2018-04-25T01:32:53.088Z,5.47
2018-04-25T01:35:21.365Z,6.27
2018-04-25T01:37:52.254Z,5.43
2018-04-25T01:40:20.491Z,5.17
2018-04-25T01:42:49.822Z,9.03
2018-04-25T01:45:23.844Z,6.10
2018-04-25T01:48:05.361Z,7.07
2018-04-25T01:50:37.489Z,8.17
2018-04-25T01:53:17.599Z,5.60
2018-04-25T02:00:44.994Z,6.10
2018-04-25T02:03:12.701Z,6.43
2018-04-25T02:05:40.986Z,5.63
2018-04-25T02:08:09.274Z,7.30
2018-04-25T02:10:37.598Z,6.50
2018-04-25T02:13:05.829Z,7.70
2018-04-25T02:15:34.123Z,5.87
2018-04-25T02:18:02.393Z,7.77
2018-04-25T02:20:30.657Z,7.20
2018-04-25T02:22:58.926Z,10.63
2018-04-25T02:25:27.216Z,6.30
2018-04-25T02:27:55.473Z,7.20
2018-04-25T02:30:23.755Z,6.10
2018-04-25T02:32:52.018Z,5.00
2018-04-25T02:35:20.310Z,8.33
2018-04-25T02:37:48.599Z,6.23
2018-04-25T02:40:16.879Z,5.97
2018-04-25T02:42:45.162Z,7.10
2018-04-25T02:45:13.411Z,5.97
2018-04-25T02:47:41.683Z,7.93
2018-04-25T02:50:09.954Z,5.63
2018-04-25T02:52:38.235Z,9.10
2018-04-25T02:55:06.488Z,6.70
2018-04-25T02:57:34.785Z,9.07
2018-04-25T03:00:03.047Z,8.27
2018-04-25T03:02:31.359Z,9.20
2018-04-25T03:04:59.633Z,6.63
2018-04-25T03:07:27.901Z,6.43
2018-04-25T03:09:56.219Z,11.10
2018-04-25T03:12:25.148Z,9.67
2018-04-25T03:14:53.431Z,11.07
2018-04-25T03:17:21.719Z,8.43
2018-04-25T03:19:49.988Z,7.47
2018-04-25T03:22:18.240Z,7.47
2018-04-25T03:24:46.548Z,7.30
2018-04-25T03:27:14.846Z,7.10
2018-04-25T03:29:43.449Z,10.20
2018-04-25T03:32:11.729Z,10.70
2018-04-25T03:34:40.020Z,9.20
2018-04-25T03:37:08.269Z,10.73
2018-04-25T03:39:36.563Z,8.90
2018-04-25T03:42:04.822Z,7.07
2018-04-25T03:44:33.110Z,9.37
2018-04-25T03:47:01.475Z,8.50
2018-04-25T03:49:29.830Z,8.10
2018-04-25T03:51:58.094Z,11.50
2018-04-25T03:54:26.406Z,10.00
2018-04-25T03:56:54.631Z,8.23
2018-04-25T03:59:22.939Z,12.47
2018-04-25T04:01:51.225Z,12.80
2018-04-25T04:04:19.517Z,12.83
2018-04-25T04:06:47.790Z,13.63
2018-04-25T04:09:16.079Z,9.63
2018-04-25T04:11:44.378Z,10.90
2018-04-25T04:14:12.778Z,7.87
2018-04-25T04:16:41.058Z,9.73
2018-04-25T04:19:09.336Z,7.97
2018-04-25T04:21:38.014Z,13.23
2018-04-25T04:24:06.278Z,10.40
2018-04-25T04:26:34.569Z,11.70
2018-04-25T04:29:03.070Z,9.50
2018-04-25T04:31:31.348Z,9.10
2018-04-25T04:33:59.639Z,11.10
2018-04-25T04:36:27.954Z,12.23
2018-04-25T04:38:56.365Z,8.43
2018-04-25T04:41:24.616Z,15.30
2018-04-25T04:43:52.894Z,8.17
2018-04-25T04:46:21.146Z,23.33
2018-04-25T04:48:49.448Z,21.67
2018-04-25T04:51:17.707Z,15.17
2018-04-25T04:53:46.117Z,13.23
2018-04-25T04:56:14.546Z,13.00
2018-04-25T04:58:42.855Z,10.47
2018-04-25T05:01:11.554Z,15.87
2018-04-25T05:03:39.855Z,21.03
2018-04-25T05:06:08.124Z,9.47
2018-04-25T05:08:36.449Z,12.33
2018-04-25T05:11:04.686Z,16.30
2018-04-25T05:13:32.977Z,14.37
2018-04-25T05:16:01.616Z,10.10
2018-04-25T05:18:30.638Z,14.10
2018-04-25T05:20:58.928Z,11.20
2018-04-25T05:23:27.350Z,11.90
2018-04-25T05:25:55.648Z,14.03
2018-04-25T05:28:23.903Z,9.67
2018-04-25T05:30:52.259Z,10.70
2018-04-25T05:33:20.512Z,9.60
2018-04-25T05:35:48.810Z,14.33
2018-04-25T05:38:17.066Z,10.40
2018-04-25T05:40:45.343Z,10.40
2018-04-25T05:43:13.604Z,15.20
2018-04-25T05:45:42.057Z,16.10
2018-04-25T05:48:10.343Z,15.50
2018-04-25T05:50:38.623Z,8.20
2018-04-25T05:53:06.935Z,12.33
2018-04-25T05:55:35.711Z,13.10
2018-04-25T05:58:03.966Z,11.70
2018-04-25T06:00:32.257Z,10.00
2018-04-25T06:03:00.565Z,13.77
2018-04-25T06:05:28.872Z,9.10
2018-04-25T06:07:57.161Z,9.67
2018-04-25T06:10:25.462Z,13.63
2018-04-25T06:12:53.845Z,10.30
2018-04-25T06:15:22.231Z,7.40
2018-04-25T06:17:50.995Z,11.50
2018-04-25T06:20:19.951Z,9.77
2018-04-25T06:22:48.180Z,10.83
2018-04-25T06:25:16.974Z,8.30
2018-04-25T06:27:45.275Z,14.20
2018-04-25T06:30:13.595Z,11.07
2018-04-25T06:32:41.806Z,11.70
2018-04-25T06:35:10.055Z,8.60
2018-04-25T06:37:38.404Z,10.37
2018-04-25T06:40:07.675Z,10.90
2018-04-25T06:42:36.059Z,12.10
2018-04-25T06:45:04.363Z,8.73
2018-04-25T06:47:32.609Z,11.07
2018-04-25T06:50:00.882Z,14.73
2018-04-25T06:52:29.164Z,13.23
2018-04-25T06:54:57.451Z,8.67
2018-04-25T06:57:25.766Z,9.60
2018-04-25T06:59:54.046Z,12.00
2018-04-25T07:02:22.308Z,14.90
2018-04-25T07:04:50.630Z,10.50
2018-04-25T07:07:18.939Z,13.33
2018-04-25T07:09:47.272Z,13.47
2018-04-25T07:12:15.579Z,15.43
2018-04-25T07:14:43.982Z,10.20
2018-04-25T07:17:12.620Z,10.50
2018-04-25T07:19:41.070Z,9.20
2018-04-25T07:22:09.364Z,12.80
2018-04-25T07:24:37.632Z,22.13
2018-04-25T07:27:06.013Z,11.60
2018-04-25T07:29:35.523Z,13.97
2018-04-25T07:32:03.821Z,17.90
2018-04-25T07:34:32.206Z,11.50
2018-04-25T07:37:00.499Z,12.00
2018-04-25T07:39:29.264Z,15.27
2018-04-25T07:41:57.664Z,17.67
2018-04-25T07:44:25.895Z,10.87
2018-04-25T07:46:54.180Z,13.00
2018-04-25T07:49:22.461Z,10.50
2018-04-25T07:51:50.762Z,14.03
2018-04-25T07:54:20.014Z,20.23
2018-04-25T07:56:48.336Z,12.27
2018-04-25T07:59:17.474Z,18.77
2018-04-25T08:01:45.776Z,13.03
2018-04-25T08:04:14.666Z,13.73
2018-04-25T08:06:44.038Z,15.13
2018-04-25T08:09:12.440Z,11.27
2018-04-25T08:11:40.860Z,12.97
2018-04-25T08:14:21.056Z,16.53
2018-04-25T08:17:01.138Z,18.87
2018-04-25T08:19:41.138Z,13.30
2018-04-25T08:22:09.403Z,15.73
2018-04-25T08:24:37.705Z,15.97
2018-04-25T08:27:06.031Z,13.47
2018-04-25T08:29:34.314Z,12.53
2018-04-25T08:32:02.583Z,12.13
2018-04-25T08:34:31.006Z,16.97
2018-04-25T08:36:59.329Z,21.03
2018-04-25T08:39:27.675Z,15.57
2018-04-25T08:41:55.965Z,11.93
2018-04-25T08:44:24.274Z,14.47
2018-04-25T08:46:52.537Z,12.80
2018-04-25T08:49:20.828Z,12.07
2018-04-25T08:51:49.603Z,15.57
2018-04-25T08:54:17.900Z,15.70
2018-04-25T08:56:46.148Z,11.10
2018-04-25T08:59:14.503Z,12.10
2018-04-25T09:01:42.714Z,11.67
2018-04-25T09:04:11.135Z,19.50
2018-04-25T09:06:39.402Z,17.77
2018-04-25T09:09:07.714Z,11.90
2018-04-25T09:11:36.307Z,14.67
2018-04-25T09:14:04.575Z,14.67
2018-04-25T09:16:32.877Z,13.07
2018-04-25T09:19:01.505Z,14.00
2018-04-25T09:21:29.867Z,11.50
2018-04-25T09:23:58.155Z,10.70
2018-04-25T09:26:27.115Z,16.93
2018-04-25T09:28:55.460Z,14.20
2018-04-25T09:31:23.746Z,15.37
2018-04-25T09:33:52.105Z,12.33
2018-04-25T09:36:20.376Z,15.53
2018-04-25T09:38:48.640Z,15.23
2018-04-25T09:41:16.938Z,15.77
2018-04-25T09:43:45.204Z,16.73
2018-04-25T09:46:13.502Z,19.47
2018-04-25T09:48:41.801Z,21.03
2018-04-25T09:51:10.082Z,10.20
2018-04-25T09:53:38.419Z,15.03
2018-04-25T09:56:06.683Z,13.83
2018-04-25T09:58:35.014Z,18.30
2018-04-25T10:01:03.261Z,20.63
2018-04-25T10:03:31.638Z,13.67
2018-04-25T10:05:59.904Z,13.60
2018-04-25T10:08:28.412Z,13.80
2018-04-25T10:10:56.741Z,12.33
2018-04-25T10:13:24.978Z,13.30
2018-04-25T10:15:53.245Z,11.10
2018-04-25T10:18:21.633Z,13.13
2018-04-25T10:20:49.868Z,36.93
2018-04-25T10:23:18.203Z,12.50
2018-04-25T10:25:46.625Z,10.73
2018-04-25T10:28:14.835Z,11.77
2018-04-25T10:30:43.163Z,14.23
2018-04-25T10:33:11.439Z,11.10
2018-04-25T10:35:40.743Z,9.30
2018-04-25T10:38:09.034Z,13.40
2018-04-25T10:40:37.413Z,11.30
2018-04-25T10:43:05.675Z,11.83
2018-04-25T10:45:34.004Z,17.20
2018-04-25T10:48:02.310Z,16.73
2018-04-25T10:50:30.654Z,27.57
2018-04-25T10:52:59.878Z,13.30
2018-04-25T10:55:28.260Z,11.20
2018-04-25T10:57:56.496Z,13.63
2018-04-25T11:00:24.815Z,11.30
2018-04-25T11:02:53.108Z,16.70
2018-04-25T11:05:21.455Z,13.20
2018-04-25T11:07:49.725Z,18.10
2018-04-25T11:10:19.048Z,10.80
2018-04-25T11:12:48.345Z,7.73
2018-04-25T11:15:17.035Z,10.90
2018-04-25T11:17:46.015Z,8.40
2018-04-25T11:20:14.938Z,12.27
2018-04-25T11:22:43.273Z,9.90
2018-04-25T11:25:12.139Z,10.90
2018-04-25T11:27:40.985Z,13.57
2018-04-25T11:30:09.245Z,9.30
2018-04-25T11:32:38.907Z,12.60
2018-04-25T11:35:07.628Z,12.97
2018-04-25T11:37:36.606Z,7.57
2018-04-25T11:40:04.934Z,8.77
2018-04-25T11:42:37.826Z,13.40
2018-04-25T11:45:09.882Z,10.93
2018-04-25T11:47:38.249Z,9.63
2018-04-25T11:50:09.344Z,7.73
2018-04-25T11:52:37.689Z,11.00
2018-04-25T11:55:07.882Z,9.30
2018-04-25T11:57:36.790Z,6.40
2018-04-25T12:00:05.374Z,6.40
2018-04-25T12:02:33.961Z,8.50
2018-04-25T12:05:03.308Z,6.40
2018-04-25T12:07:31.553Z,9.30
2018-04-25T12:09:59.857Z,6.33
2018-04-25T12:12:28.596Z,8.53
2018-04-25T12:14:56.889Z,11.10
2018-04-25T12:17:25.170Z,5.93
2018-04-25T12:19:53.478Z,5.40
2018-04-25T12:22:21.743Z,5.30
2018-04-25T12:24:50.018Z,5.67
2018-04-25T12:27:18.347Z,4.47
2018-04-25T12:29:46.731Z,6.27
2018-04-25T12:32:15.050Z,5.80
2018-04-25T12:34:43.365Z,10.23
2018-04-25T12:37:11.604Z,4.30
2018-04-25T12:39:39.910Z,10.77
2018-04-25T12:42:08.596Z,4.73
2018-04-25T12:44:37.234Z,4.70
2018-04-25T12:47:05.506Z,4.77
2018-04-25T12:49:33.844Z,5.13
2018-04-25T12:52:02.164Z,3.67
2018-04-25T12:54:30.501Z,4.47
2018-04-25T12:56:58.863Z,5.90
2018-04-25T12:59:27.236Z,4.83
2018-04-25T13:01:55.528Z,12.13
2018-04-25T13:04:23.816Z,6.93
2018-04-25T13:06:52.263Z,6.67
2018-04-25T13:09:20.560Z,3.53
2018-04-25T13:11:48.871Z,5.43
2018-04-25T13:14:17.147Z,4.90
2018-04-25T13:16:45.440Z,5.87
2018-04-25T13:19:13.783Z,12.03
2018-04-25T13:21:42.081Z,7.40
2018-04-25T13:24:12.292Z,3.63
2018-04-25T13:26:40.609Z,5.17
2018-04-25T13:29:08.902Z,7.73
2018-04-25T13:31:37.290Z,4.00
2018-04-25T13:34:05.552Z,2.80
2018-04-25T13:36:34.446Z,6.03
2018-04-25T13:39:02.748Z,2.80
2018-04-25T13:41:31.235Z,4.73
2018-04-25T13:43:59.449Z,2.77
2018-04-25T13:46:27.718Z,4.60
2018-04-25T13:48:55.986Z,2.13
2018-04-25T13:51:24.278Z,3.23
2018-04-25T13:53:52.651Z,3.73
2018-04-25T13:56:22.724Z,3.07
2018-04-25T13:58:51.035Z,3.50
2018-04-25T14:01:19.395Z,3.90
2018-04-25T14:03:47.664Z,3.13
2018-04-25T14:06:16.590Z,2.70
2018-04-25T14:08:44.910Z,3.63
2018-04-25T14:11:14.103Z,2.83
2018-04-25T14:13:42.386Z,3.17
2018-04-25T14:16:10.635Z,2.90
2018-04-25T14:18:38.914Z,2.67
2018-04-25T14:21:07.243Z,2.93
2018-04-25T14:23:35.518Z,2.60
2018-04-25T14:26:03.787Z,2.30
2018-04-25T14:28:32.078Z,3.50
2018-04-25T14:31:00.347Z,4.80
2018-04-25T14:33:28.652Z,2.43
2018-04-25T14:35:57.202Z,7.80
2018-04-25T14:38:25.459Z,3.60
2018-04-25T14:40:53.735Z,2.70
2018-04-25T14:43:22.060Z,2.63
2018-04-25T14:45:50.310Z,2.53
2018-04-25T14:48:18.697Z,6.17
2018-04-25T14:50:46.890Z,3.00
2018-04-25T14:53:15.179Z,4.47
2018-04-25T14:55:43.442Z,2.40
2018-04-25T14:58:11.782Z,2.50
2018-04-25T15:00:40.053Z,2.80
2018-04-25T15:03:08.411Z,2.60
2018-04-25T15:05:36.737Z,3.93
2018-04-25T15:08:05.054Z,3.30
2018-04-25T15:10:33.394Z,3.80
2018-04-25T15:13:02.091Z,5.70
2018-04-25T15:15:30.443Z,4.50
2018-04-25T15:17:58.685Z,2.77
2018-04-25T15:20:27.010Z,2.90
2018-04-25T15:22:55.281Z,2.60
2018-04-25T15:25:23.750Z,5.07
2018-04-25T15:27:52.013Z,3.30
2018-04-25T15:30:20.584Z,3.17
2018-04-25T15:32:48.945Z,2.77
2018-04-25T15:35:18.536Z,4.80
2018-04-25T15:37:48.413Z,2.43
2018-04-25T15:40:16.680Z,5.70
2018-04-25T15:42:45.100Z,4.20
2018-04-25T15:45:14.017Z,2.20
2018-04-25T15:47:43.627Z,2.73
2018-04-25T15:50:12.260Z,2.20
2018-04-25T15:52:41.845Z,4.70
2018-04-25T15:55:10.909Z,2.23
2018-04-25T15:57:39.677Z,2.60
2018-04-25T16:00:07.922Z,2.70
2018-04-25T16:02:36.231Z,4.80
2018-04-25T16:05:04.534Z,5.03
2018-04-25T16:07:33.516Z,3.90
2018-04-25T16:10:01.835Z,3.70
2018-04-25T16:12:30.155Z,3.20
2018-04-25T16:14:58.593Z,3.47
2018-04-25T16:17:26.928Z,3.80
2018-04-25T16:19:55.218Z,4.33
2018-04-25T16:22:23.517Z,5.73
2018-04-25T16:24:52.023Z,5.23
2018-04-25T16:27:20.284Z,8.33
2018-04-25T16:29:48.662Z,3.20
2018-04-25T16:32:16.929Z,3.40
2018-04-25T16:34:45.240Z,4.30
2018-04-25T16:37:13.528Z,6.30
2018-04-25T16:39:41.830Z,4.63
2018-04-25T16:42:10.112Z,4.13
2018-04-25T16:44:38.518Z,3.17
2018-04-25T16:47:06.712Z,3.53
2018-04-25T16:49:35.182Z,3.33
2018-04-25T16:52:03.648Z,3.90
2018-04-25T16:54:32.123Z,3.63
2018-04-25T16:57:00.926Z,4.30
2018-04-25T16:59:29.227Z,4.10
2018-04-25T17:01:57.571Z,7.30
2018-04-25T17:04:25.989Z,4.20
2018-04-25T17:06:54.246Z,4.23
2018-04-25T17:09:22.620Z,3.67
2018-04-25T17:11:50.917Z,4.13
2018-04-25T17:14:19.202Z,5.23
2018-04-25T17:16:47.821Z,5.00
2018-04-25T17:19:16.056Z,4.30
2018-04-25T17:21:44.400Z,4.53
2018-04-25T17:24:12.681Z,4.00
2018-04-25T17:26:41.842Z,3.70
2018-04-25T17:29:10.128Z,3.93
2018-04-25T17:31:38.420Z,3.10
2018-04-25T17:34:06.701Z,3.70
2018-04-25T17:36:35.499Z,4.20
2018-04-25T17:39:03.865Z,3.70
2018-04-25T17:41:32.171Z,5.30
2018-04-25T17:44:00.436Z,4.20
2018-04-25T17:46:28.747Z,4.10
2018-04-25T17:48:57.045Z,3.73
2018-04-25T17:51:25.353Z,3.73
2018-04-25T17:53:53.643Z,3.93
2018-04-25T17:56:21.905Z,3.40
2018-04-25T17:58:50.258Z,3.23
2018-04-25T18:01:18.659Z,2.97
2018-04-25T18:03:46.970Z,3.73
2018-04-25T18:06:15.614Z,3.13
2018-04-25T18:08:43.909Z,2.97
2018-04-25T18:11:12.174Z,2.97
2018-04-25T18:13:40.480Z,2.70
2018-04-25T18:16:08.739Z,2.90
2018-04-25T18:18:37.055Z,3.20
2018-04-25T18:21:05.323Z,5.87
2018-04-25T18:23:33.940Z,3.00
2018-04-25T18:26:02.529Z,3.23
2018-04-25T18:28:30.827Z,4.20
2018-04-25T18:30:59.396Z,3.93
2018-04-25T18:33:27.681Z,3.63
2018-04-25T18:35:55.972Z,3.80
2018-04-25T18:38:24.285Z,3.27
2018-04-25T18:40:53.289Z,3.03
2018-04-25T18:43:21.744Z,3.17
2018-04-25T18:45:50.013Z,4.80
2018-04-25T18:48:18.375Z,2.93
2018-04-25T18:50:46.631Z,3.27
2018-04-25T18:53:14.943Z,4.10
2018-04-25T18:55:43.978Z,2.93
2018-04-25T18:58:12.273Z,5.33
2018-04-25T19:00:40.588Z,3.53
2018-04-25T19:03:08.897Z,2.93
2018-04-25T19:05:37.255Z,2.33
2018-04-25T19:08:05.495Z,2.40
2018-04-25T19:10:33.867Z,3.40
2018-04-25T19:13:02.143Z,4.33
2018-04-25T19:15:30.685Z,3.50
2018-04-25T19:17:58.954Z,3.30
2018-04-25T19:20:27.284Z,3.20
2018-04-25T19:22:55.557Z,4.40
2018-04-25T19:25:23.839Z,2.90
2018-04-25T19:27:52.127Z,7.40
2018-04-25T19:30:20.499Z,7.87
2018-04-25T19:32:48.787Z,4.03
2018-04-25T19:35:17.152Z,5.53
2018-04-25T19:37:45.493Z,3.57
2018-04-25T19:40:13.798Z,2.53
2018-04-25T19:42:42.076Z,3.10
2018-04-25T19:45:10.383Z,5.60
2018-04-25T19:47:39.042Z,3.30
2018-04-25T19:50:07.421Z,6.03
2018-04-25T19:52:35.711Z,3.47
2018-04-25T19:55:04.338Z,4.63
2018-04-25T19:57:32.699Z,3.50
2018-04-25T20:00:01.898Z,3.43
2018-04-25T20:02:30.221Z,3.07
2018-04-25T20:04:59.728Z,3.70
2018-04-25T20:07:28.412Z,3.83
2018-04-25T20:09:56.787Z,13.63
2018-04-25T20:12:25.075Z,5.97
2018-04-25T20:14:54.488Z,4.97
2018-04-25T20:17:22.807Z,4.80
2018-04-25T20:19:51.137Z,5.60
2018-04-25T20:22:19.413Z,4.50
2018-04-25T20:24:48.518Z,4.70
2018-04-25T20:27:17.083Z,4.90
2018-04-25T20:29:46.316Z,8.60
2018-04-25T20:32:17.115Z,6.00
2018-04-25T20:34:45.681Z,7.30
2018-04-25T20:37:13.997Z,6.90
2018-04-25T20:39:42.934Z,6.30
2018-04-25T20:42:11.203Z,5.43
2018-04-25T20:44:39.633Z,6.53
2018-04-25T20:47:07.930Z,6.17
2018-04-25T20:49:36.254Z,9.00
2018-04-25T20:52:04.534Z,6.13
2018-04-25T20:54:32.846Z,7.00
2018-04-25T20:57:01.177Z,6.70
2018-04-25T20:59:30.235Z,6.93
2018-04-25T21:01:58.551Z,6.57
2018-04-25T21:04:26.903Z,6.30
2018-04-25T21:06:55.323Z,7.00
2018-04-25T21:09:23.638Z,5.90
2018-04-25T21:11:51.994Z,7.83
2018-04-25T21:14:20.346Z,5.67
2018-04-25T21:16:48.619Z,5.50
2018-04-25T21:19:16.897Z,4.73
2018-04-25T21:21:45.191Z,5.67
2018-04-25T21:24:13.556Z,5.53
2018-04-25T21:26:41.815Z,4.63
2018-04-25T21:29:10.071Z,5.60
2018-04-25T21:31:38.404Z,5.33
2018-04-25T21:34:06.666Z,6.40
2018-04-25T21:36:35.009Z,6.27
2018-04-25T21:39:03.245Z,5.30
2018-04-25T21:41:31.544Z,6.43
2018-04-25T21:43:59.788Z,6.67
2018-04-25T21:46:28.099Z,6.40
2018-04-25T21:48:56.415Z,5.43
2018-04-25T21:51:24.751Z,5.20
2018-04-25T21:53:52.978Z,7.67
2018-04-25T21:56:21.316Z,8.53
2018-04-25T21:58:49.693Z,5.70
2018-04-25T22:01:18.090Z,5.57
2018-04-25T22:03:46.406Z,7.87
2018-04-25T22:06:14.688Z,5.50
2018-04-25T22:08:42.972Z,6.00
2018-04-25T22:11:11.393Z,6.00
2018-04-25T22:13:39.687Z,13.93
2018-04-25T22:16:08.047Z,5.83
2018-04-25T22:18:36.313Z,5.70
2018-04-25T22:21:04.603Z,6.37
2018-04-25T22:23:32.970Z,5.13
2018-04-25T22:26:01.227Z,8.23
2018-04-25T22:28:29.535Z,6.30
2018-04-25T22:30:57.867Z,6.30
2018-04-25T22:33:26.156Z,8.40
2018-04-25T22:35:54.427Z,6.27
2018-04-25T22:38:22.722Z,5.93
2018-04-25T22:40:50.983Z,6.10
2018-04-25T22:43:19.282Z,6.63
2018-04-25T22:45:47.551Z,6.13
2018-04-25T22:48:15.870Z,10.70
2018-04-25T22:50:44.127Z,7.00
2018-04-25T22:53:12.464Z,5.63
2018-04-25T22:55:40.773Z,9.30
2018-04-25T22:58:09.067Z,6.27
2018-04-25T23:00:37.373Z,7.50
2018-04-25T23:03:06.540Z,10.80
2018-04-25T23:05:34.801Z,6.77
2018-04-25T23:08:03.311Z,6.93
2018-04-25T23:10:31.580Z,5.50
2018-04-25T23:12:59.870Z,4.93
2018-04-25T23:15:28.141Z,5.13
2018-04-25T23:17:56.410Z,5.37
2018-04-25T23:20:24.682Z,6.30
2018-04-25T23:22:52.952Z,6.33
2018-04-25T23:25:21.235Z,5.20
2018-04-25T23:27:49.504Z,6.73
2018-04-25T23:30:17.796Z,6.10
2018-04-25T23:32:46.053Z,5.63
2018-04-25T23:35:14.341Z,6.03
2018-04-25T23:37:42.635Z,4.60
2018-04-25T23:40:10.913Z,4.90
2018-04-25T23:42:39.179Z,5.10
2018-04-25T23:45:07.666Z,8.70
2018-04-25T23:47:35.932Z,6.97
2018-04-25T23:50:04.208Z,6.07
2018-04-25T23:52:32.484Z,4.93
2018-04-25T23:55:00.762Z,6.00
2018-04-25T23:57:29.062Z,4.70
2018-04-25T23:59:57.322Z,5.03
